LLHA/HFA METAR and TAF weather

Enter ICAO airport designator
Station Type Date Time Source
LLHA METAR 2020/04/04 05:50 UTC NOAA

LLHA 040550Z 16007KT CAVOK 18/10 Q1017


Station Type Date Time Source
LLHA Decoded METAR 2020/04/04 05:50 UTC NOAA

Sde-Haifa Haifa, Israel (LLHA) 32-48N 035-02E 8M
Apr 04, 2020 - 01:50 AM EDT / 2020.04.04 0550 UTC
Wind: from the SSE (160 degrees) at 8 MPH (7 KT):0
Visibility: greater than 7 mile(s):0
Temperature: 64 F (18 C)
Dew Point: 50 F (10 C)
Relative Humidity: 59%
Pressure (altimeter): 30.03 in. Hg (1017 hPa)
ob: LLHA 040550Z 16007KT CAVOK 18/10 Q1017
cycle: 6

Station Type Date Time Source
LLHA TAF 2020/04/04 06:00 UTC NOAA

TAF LLHA 040505Z 0406/0506 13005KT CAVOK
BECMG 0409/0411 36012KT
BECMG 0415/0417 12005KT
BECMG 0419/0421 14020G30KT TX26/0411Z TN19/0418Z

Example: see airport list